Time;durP1;ratioP1;P1;durP2;ratioP2;P2;SDS_P1;SDS_P2;PMS_P1;PMS_P2;Temp;Humidity;BMP_temperature;BMP_pressure;BME280_temperature;BME280_humidity;BME280_pressure;Samples;Min_cycle;Max_cycle;Signal;HPM_P1;HPM_P2
2022/04/17 00:00:21;;;;;;;2.10;1.50;;;;;;;7.92;nan;101913.81;5006932;28;20589;-71
2022/04/17 00:02:47;;;;;;;2.97;1.80;;;;;;;7.88;nan;101923.69;5007018;28;20034;-71
2022/04/17 00:05:12;;;;;;;2.08;1.40;;;;;;;7.89;nan;101917.50;5011257;28;20059;-71
2022/04/17 00:07:38;;;;;;;2.88;1.58;;;;;;;7.80;nan;101911.03;5009780;28;20029;-71
2022/04/17 00:10:04;;;;;;;2.95;1.60;;;;;;;7.76;nan;101909.53;5007097;28;20038;-71
2022/04/17 00:12:30;;;;;;;2.63;1.40;;;;;;;7.74;nan;101908.78;5008629;28;20122;-71
2022/04/17 00:14:55;;;;;;;4.65;1.85;;;;;;;7.72;nan;101912.47;5002155;28;20042;-71
2022/04/17 00:17:21;;;;;;;2.08;1.33;;;;;;;7.63;nan;101898.97;5009231;28;20596;-71
2022/04/17 00:19:48;;;;;;;2.70;1.70;;;;;;;7.63;nan;101895.50;5008575;28;20460;-71
2022/04/17 00:22:15;;;;;;;2.83;1.50;;;;;;;7.57;nan;101895.88;5007881;28;20040;-71
2022/04/17 00:24:44;;;;;;;2.40;1.30;;;;;;;7.57;nan;101898.50;4991596;28;20069;-71
2022/04/17 00:27:11;;;;;;;2.80;1.85;;;;;;;7.56;nan;101895.03;5008591;28;20030;-71
2022/04/17 00:29:37;;;;;;;3.97;1.80;;;;;;;7.49;nan;101892.91;4991142;28;20052;-71
2022/04/17 00:32:05;;;;;;;2.88;1.42;;;;;;;7.46;nan;101886.06;4989937;28;20128;-72
2022/04/17 00:34:31;;;;;;;3.70;1.50;;;;;;;7.45;nan;101886.97;5007055;28;20517;-71
2022/04/17 00:37:00;;;;;;;2.88;1.65;;;;;;;7.41;nan;101888.97;4990960;28;20034;-71
2022/04/17 00:39:27;;;;;;;2.03;1.38;;;;;;;7.40;nan;101889.06;4991682;28;20495;-71
2022/04/17 00:41:56;;;;;;;2.97;1.50;;;;;;;7.42;nan;101893.28;5008219;28;20073;-71
2022/04/17 00:44:22;;;;;;;4.28;1.70;;;;;;;7.34;nan;101882.41;4990548;28;20050;-71
2022/04/17 00:46:49;;;;;;;3.30;1.75;;;;;;;7.34;nan;101877.16;5010630;28;20443;-71
2022/04/17 00:49:16;;;;;;;2.33;1.70;;;;;;;7.30;nan;101880.06;5011050;28;20366;-71
2022/04/17 00:51:47;;;;;;;4.00;1.55;;;;;;;7.26;nan;101884.66;4992086;28;20521;-71
2022/04/17 00:54:14;;;;;;;;;;;;;;;7.28;nan;101879.31;4991017;28;20137;-71
2022/04/17 00:56:41;;;;;;;2.60;1.75;;;;;;;7.24;nan;101873.38;5005059;28;19921;-71
2022/04/17 00:59:13;;;;;;;4.45;1.70;;;;;;;7.30;nan;101880.91;5007193;28;20041;-71
2022/04/17 01:01:40;;;;;;;3.63;1.73;;;;;;;7.20;nan;101877.19;4991116;28;20037;-71
2022/04/17 01:04:07;;;;;;;3.47;1.65;;;;;;;7.17;nan;101872.09;4989151;28;20066;-71
2022/04/17 01:06:34;;;;;;;2.45;1.40;;;;;;;7.09;nan;101877.00;4989937;28;20030;-71
2022/04/17 01:09:00;;;;;;;2.85;1.55;;;;;;;7.10;nan;101879.50;4990446;28;20117;-71
2022/04/17 01:11:27;;;;;;;2.60;1.60;;;;;;;6.89;nan;101873.81;5008752;28;20038;-71
2022/04/17 01:13:55;;;;;;;4.15;1.65;;;;;;;6.77;nan;101870.16;4990880;28;20046;-71
2022/04/17 01:16:28;;;;;;;3.47;1.52;;;;;;;6.73;nan;101871.28;5010065;28;20444;-71
2022/04/17 01:19:04;;;;;;;2.33;1.45;;;;;;;6.63;nan;101871.97;4993323;28;20038;-71
2022/04/17 01:21:31;;;;;;;1.98;1.27;;;;;;;6.57;nan;101871.34;4986858;28;20030;-71
2022/04/17 01:26:56;;;;;;;1.80;1.20;;;;;;;6.50;nan;101877.09;5005928;28;20427;-72
2022/04/17 01:29:39;;;;;;;2.58;1.55;;;;;;;6.42;nan;101874.94;4989080;28;20030;-70
2022/04/17 01:32:08;;;;;;;3.20;1.60;;;;;;;6.34;nan;101864.88;5006319;28;20048;-70
2022/04/17 01:34:35;;;;;;;3.10;1.58;;;;;;;6.35;nan;101870.97;5008032;28;20033;-70
2022/04/17 01:37:01;;;;;;;3.85;1.52;;;;;;;6.35;nan;101869.19;5007588;28;20037;-71
2022/04/17 01:39:29;;;;;;;2.80;1.60;;;;;;;6.25;nan;101862.78;4990314;28;20031;-70
2022/04/17 01:41:56;;;;;;;2.35;1.33;;;;;;;6.18;nan;101871.13;5007432;28;20124;-70
2022/04/17 01:44:25;;;;;;;1.75;1.17;;;;;;;6.04;nan;101870.16;5006220;28;20041;-70
2022/04/17 01:46:51;;;;;;;2.30;1.20;;;;;;;5.93;nan;101872.50;4989348;28;20586;-70
2022/04/17 01:49:19;;;;;;;1.77;1.33;;;;;;;5.92;nan;101870.84;4989840;28;20042;-70
2022/04/17 01:51:47;;;;;;;3.20;1.50;;;;;;;5.90;nan;101868.28;4991025;28;20038;-70
2022/04/17 01:54:21;;;;;;;1.70;1.40;;;;;;;5.86;nan;101866.75;5005990;28;20041;-72
2022/04/17 01:56:48;;;;;;;3.30;1.95;;;;;;;5.85;nan;101861.63;4989354;28;20036;-72
2022/04/17 01:59:17;;;;;;;2.17;1.20;;;;;;;5.73;nan;101861.38;5006691;28;20076;-70
2022/04/17 02:01:43;;;;;;;2.40;1.25;;;;;;;5.66;nan;101862.66;4989402;28;20419;-72
2022/04/17 02:04:11;;;;;;;2.10;1.40;;;;;;;5.61;nan;101867.31;4989387;28;21141;-72
2022/04/17 02:06:42;;;;;;;2.30;1.40;;;;;;;5.58;nan;101861.41;4989574;28;20041;-70
2022/04/17 02:09:13;;;;;;;3.30;1.40;;;;;;;5.52;nan;101858.19;4988273;28;20392;-72
2022/04/17 02:11:40;;;;;;;2.25;1.60;;;;;;;5.51;nan;101855.66;5006752;28;20030;-72
2022/04/17 02:14:13;;;;;;;1.63;1.20;;;;;;;5.52;nan;101857.34;5005436;28;20038;-70
2022/04/17 02:16:39;;;;;;;2.70;1.40;;;;;;;5.47;nan;101857.59;4989623;28;20120;-70
2022/04/17 02:19:04;;;;;;;4.13;1.85;;;;;;;5.48;nan;101854.06;5006038;28;20120;-69
2022/04/17 02:21:31;;;;;;;4.68;1.70;;;;;;;5.57;nan;101843.97;5007404;28;20034;-70
2022/04/17 02:24:00;;;;;;;3.38;1.83;;;;;;;5.54;nan;101843.22;5005014;28;20049;-72
2022/04/17 02:26:27;;;;;;;2.25;1.50;;;;;;;5.47;nan;101835.78;4988358;28;20033;-70
2022/04/17 02:28:56;;;;;;;3.55;1.80;;;;;;;5.45;nan;101832.38;4988277;28;20030;-70
2022/04/17 02:31:23;;;;;;;3.22;1.63;;;;;;;5.38;nan;101836.28;4989208;28;20128;-72
2022/04/17 02:33:50;;;;;;;3.08;1.70;;;;;;;5.30;nan;101827.06;5007647;28;20084;-72
2022/04/17 02:36:17;;;;;;;3.92;1.80;;;;;;;5.23;nan;101825.72;4988722;28;20033;-70
2022/04/17 02:38:43;;;;;;;2.70;1.80;;;;;;;5.16;nan;101821.75;4988339;28;20057;-72
2022/04/17 02:41:09;;;;;;;2.35;1.60;;;;;;;5.10;nan;101822.06;5006313;28;20414;-72
2022/04/17 02:43:35;;;;;;;3.92;1.58;;;;;;;5.04;nan;101825.06;5008408;28;20029;-72
2022/04/17 02:46:02;;;;;;;2.50;1.70;;;;;;;5.00;nan;101821.75;4991782;28;20030;-72
2022/04/17 02:48:28;;;;;;;2.95;1.77;;;;;;;4.99;nan;101820.06;5008733;28;20092;-72
2022/04/17 02:50:55;;;;;;;3.35;1.67;;;;;;;4.98;nan;101813.13;5009295;28;20431;-72
2022/04/17 02:53:22;;;;;;;3.70;2.10;;;;;;;4.98;nan;101809.66;4991515;28;20502;-72
2022/04/17 02:55:48;;;;;;;2.40;1.80;;;;;;;5.07;nan;101817.00;4991363;28;20066;-72
2022/04/17 02:58:14;;;;;;;4.63;1.98;;;;;;;5.13;nan;101818.47;5008423;28;20034;-72
2022/04/17 03:06:11;;;;;;;6.30;2.03;;;;;;;5.20;nan;101823.28;5005655;28;20154;-70
2022/04/17 03:08:41;;;;;;;3.78;2.00;;;;;;;5.21;nan;101834.59;4989780;28;20030;-72
2022/04/17 03:11:08;;;;;;;3.25;1.90;;;;;;;5.17;nan;101838.31;4988811;28;20419;-72
2022/04/17 03:13:35;;;;;;;2.60;1.80;;;;;;;5.11;nan;101839.50;4989472;28;20040;-72
2022/04/17 03:16:05;;;;;;;3.15;1.63;;;;;;;5.04;nan;101838.16;4989141;28;20034;-70
2022/04/17 03:18:31;;;;;;;2.72;1.88;;;;;;;4.96;nan;101837.72;4989877;28;20045;-70
2022/04/17 03:20:58;;;;;;;3.28;1.90;;;;;;;4.88;nan;101840.75;5008469;28;20046;-72
2022/04/17 03:23:24;;;;;;;2.85;1.60;;;;;;;4.82;nan;101836.69;4991617;28;20038;-73
2022/04/17 03:25:50;;;;;;;2.42;1.58;;;;;;;4.80;nan;101835.09;4990056;28;20034;-72
2022/04/17 03:28:17;;;;;;;2.65;1.63;;;;;;;4.78;nan;101837.78;5005550;28;20034;-70
2022/04/17 03:30:42;;;;;;;4.13;1.77;;;;;;;4.75;nan;101837.13;5009611;28;20454;-72
2022/04/17 03:33:08;;;;;;;2.75;1.80;;;;;;;4.70;nan;101837.38;5009537;28;20030;-72
2022/04/17 03:35:35;;;;;;;3.03;1.73;;;;;;;4.68;nan;101833.97;5009003;28;20034;-72
2022/04/17 03:38:01;;;;;;;3.65;2.00;;;;;;;4.65;nan;101829.75;5009817;28;20084;-70
2022/04/17 03:40:28;;;;;;;4.97;2.28;;;;;;;4.62;nan;101824.69;4992421;28;20057;-70
2022/04/17 03:42:53;;;;;;;4.15;1.80;;;;;;;4.58;nan;101823.13;5010226;28;20036;-72
2022/04/17 03:45:20;;;;;;;3.17;1.58;;;;;;;4.51;nan;101824.38;4993399;28;20038;-69
2022/04/17 03:47:45;;;;;;;3.28;1.58;;;;;;;4.41;nan;101823.16;5005613;28;20030;-72
2022/04/17 03:50:11;;;;;;;2.13;1.60;;;;;;;4.34;nan;101814.78;5006113;28;20030;-72
2022/04/17 03:52:41;;;;;;;2.42;1.55;;;;;;;4.28;nan;101809.88;5004829;28;20084;-71
2022/04/17 03:55:08;;;;;;;3.00;1.80;;;;;;;4.22;nan;101807.59;5008323;28;20034;-71
2022/04/17 03:57:33;;;;;;;3.63;1.80;;;;;;;4.15;nan;101809.66;5009311;28;20092;-72
2022/04/17 03:59:59;;;;;;;3.20;1.80;;;;;;;4.16;nan;101805.25;5008901;28;20495;-72
2022/04/17 04:02:25;;;;;;;2.65;1.80;;;;;;;4.16;nan;101802.66;5008261;28;20036;-70
2022/04/17 04:04:50;;;;;;;3.80;1.85;;;;;;;4.20;nan;101798.94;5009290;28;20030;-72
2022/04/17 04:07:16;;;;;;;2.67;1.88;;;;;;;4.17;nan;101796.47;5008892;28;20051;-72
2022/04/17 04:09:41;;;;;;;2.42;1.80;;;;;;;4.13;nan;101813.28;5009754;28;20030;-72
2022/04/17 04:12:06;;;;;;;3.08;1.60;;;;;;;4.06;nan;101814.53;5008643;28;20077;-72
2022/04/17 04:14:32;;;;;;;3.97;1.88;;;;;;;4.06;nan;101812.75;5009543;28;20415;-72
2022/04/17 04:16:59;;;;;;;3.78;1.80;;;;;;;3.96;nan;101801.91;5009470;28;20045;-72
2022/04/17 04:19:25;;;;;;;3.05;1.95;;;;;;;4.02;nan;101809.41;5007487;28;20034;-72
2022/04/17 04:21:50;;;;;;;2.38;1.80;;;;;;;3.96;nan;101796.66;5008421;28;20033;-72
2022/04/17 04:24:21;;;;;;;2.38;1.60;;;;;;;3.83;nan;101785.94;5008576;28;20046;-72
2022/04/17 04:29:31;;;;;;;2.97;1.90;;;;;;;3.75;nan;101790.72;5006126;28;20273;-72
2022/04/17 04:31:57;;;;;;;2.28;1.60;;;;;;;3.69;nan;101790.19;5008618;28;20044;-72
2022/04/17 04:34:22;;;;;;;2.80;1.90;;;;;;;3.62;nan;101789.63;5008309;28;20038;-73
2022/04/17 04:36:47;;;;;;;4.45;2.20;;;;;;;3.54;nan;101790.03;5009602;28;20118;-73
2022/04/17 04:39:12;;;;;;;3.50;1.92;;;;;;;3.50;nan;101779.78;5008555;28;20042;-73
2022/04/17 04:41:38;;;;;;;2.92;1.80;;;;;;;3.41;nan;101791.56;5006580;28;20174;-73
2022/04/17 04:44:03;;;;;;;3.58;1.83;;;;;;;3.38;nan;101800.41;5006949;28;20145;-73
2022/04/17 04:46:28;;;;;;;2.05;1.48;;;;;;;3.35;nan;101804.91;5008625;28;20088;-73
2022/04/17 04:51:38;;;;;;;3.55;2.20;;;;;;;3.45;nan;101824.47;5009000;28;20048;-73
2022/04/17 04:54:07;;;;;;;3.30;1.85;;;;;;;3.55;nan;101819.63;5007912;28;20034;-73
2022/04/17 04:56:32;;;;;;;3.65;1.90;;;;;;;3.64;nan;101816.56;5007291;28;20489;-74
2022/04/17 04:58:57;;;;;;;3.60;1.95;;;;;;;3.75;nan;101813.44;5009022;28;20061;-73
2022/04/17 05:01:22;;;;;;;3.97;2.20;;;;;;;3.78;nan;101816.75;5007701;28;20399;-73
2022/04/17 05:03:48;;;;;;;3.53;2.10;;;;;;;3.86;nan;101803.25;5007643;28;20084;-74
2022/04/17 05:06:13;;;;;;;4.10;2.33;;;;;;;3.94;nan;101811.59;5007494;28;20530;-73
2022/04/17 05:08:38;;;;;;;5.35;2.40;;;;;;;4.04;nan;101809.34;5008757;28;20042;-73
2022/04/17 05:11:03;;;;;;;4.47;2.15;;;;;;;4.13;nan;101813.28;5008011;28;20038;-73
2022/04/17 05:13:29;;;;;;;4.22;2.20;;;;;;;4.29;nan;101803.72;5009383;28;20479;-73
2022/04/17 05:15:54;;;;;;;2.75;2.10;;;;;;;4.51;nan;101807.84;5008338;28;20506;-73
2022/04/17 05:18:19;;;;;;;4.63;2.30;;;;;;;4.71;nan;101789.25;5007291;28;20178;-74
2022/04/17 05:20:45;;;;;;;4.65;2.45;;;;;;;4.86;nan;101787.56;5009102;28;20065;-73
2022/04/17 05:23:22;;;;;;;2.97;2.10;;;;;;;5.05;nan;101795.28;5007564;28;20034;-73
2022/04/17 05:25:51;;;;;;;2.28;1.80;;;;;;;5.23;nan;101782.94;5005172;28;20083;-74
2022/04/17 05:28:17;;;;;;;4.32;2.10;;;;;;;5.39;nan;101788.16;5008297;28;20518;-74
2022/04/17 05:30:44;;;;;;;4.15;2.03;;;;;;;5.54;nan;101798.59;5006375;28;20113;-74
2022/04/17 05:33:09;;;;;;;3.05;2.00;;;;;;;5.77;nan;101792.97;5008566;28;20109;-74
2022/04/17 05:35:35;;;;;;;2.95;2.08;;;;;;;6.04;nan;101801.88;5006897;28;20180;-74
2022/04/17 05:38:01;;;;;;;3.47;2.10;;;;;;;6.21;nan;101800.88;5008070;28;20611;-74
2022/04/17 05:40:27;;;;;;;2.78;1.90;;;;;;;6.49;nan;101805.31;5007732;28;20564;-74
2022/04/17 05:42:52;;;;;;;3.25;1.85;;;;;;;6.70;nan;101807.56;5007526;28;20128;-74
2022/04/17 05:45:18;;;;;;;3.42;2.08;;;;;;;6.90;nan;101806.31;5006847;28;20048;-74
2022/04/17 05:47:44;;;;;;;3.58;2.20;;;;;;;7.02;nan;101809.00;5008899;28;20184;-74
2022/04/17 05:50:10;;;;;;;2.72;1.88;;;;;;;7.33;nan;101809.66;5006701;28;20542;-74
2022/04/17 05:52:36;;;;;;;3.33;2.13;;;;;;;7.54;nan;101807.44;5008236;28;20092;-75
2022/04/17 05:55:01;;;;;;;3.60;1.92;;;;;;;7.73;nan;101808.84;5007909;28;20033;-74
2022/04/17 05:57:27;;;;;;;3.78;2.20;;;;;;;7.99;nan;101815.00;5005632;28;20093;-74
2022/04/17 05:59:52;;;;;;;3.42;2.08;;;;;;;8.16;nan;101814.72;5007401;28;20038;-74
2022/04/17 06:02:18;;;;;;;6.13;2.20;;;;;;;8.38;nan;101810.59;5006162;28;20229;-74
2022/04/17 06:04:43;;;;;;;3.90;1.70;;;;;;;8.62;nan;101819.47;5007697;28;20042;-74
2022/04/17 06:07:09;;;;;;;2.22;1.58;;;;;;;8.85;nan;101819.66;5006807;28;20042;-75
2022/04/17 06:09:34;;;;;;;2.85;1.70;;;;;;;9.16;nan;101809.56;5008193;28;20033;-75
2022/04/17 06:12:00;;;;;;;4.57;1.92;;;;;;;9.42;nan;101815.56;5007753;28;20045;-75
2022/04/17 06:14:25;;;;;;;3.03;1.60;;;;;;;9.58;nan;101808.19;5006390;28;20042;-75
2022/04/17 06:16:50;;;;;;;4.00;1.77;;;;;;;9.89;nan;101806.75;5007627;28;20510;-75
2022/04/17 06:19:17;;;;;;;3.05;1.85;;;;;;;10.30;nan;101802.78;5006776;28;20081;-75
2022/04/17 06:21:42;;;;;;;2.92;1.80;;;;;;;10.59;nan;101802.31;5008328;28;20037;-75
2022/04/17 06:24:08;;;;;;;3.53;1.90;;;;;;;10.97;nan;101801.06;5005799;28;20033;-75
2022/04/17 06:26:34;;;;;;;3.63;1.60;;;;;;;11.33;nan;101791.09;5005700;28;20034;-75
2022/04/17 06:29:03;;;;;;;2.70;1.60;;;;;;;11.79;nan;101789.94;5002613;28;20395;-75
2022/04/17 06:31:29;;;;;;;3.47;1.60;;;;;;;11.98;nan;101792.75;4988790;28;20041;-74
2022/04/17 06:33:55;;;;;;;2.22;1.48;;;;;;;12.19;nan;101789.25;5005937;28;20053;-72
2022/04/17 06:36:21;;;;;;;2.30;1.40;;;;;;;12.57;nan;101756.75;5005576;28;20045;-74
2022/04/17 06:38:46;;;;;;;2.95;1.60;;;;;;;;;;5009034;28;20532;-74
2022/04/17 06:41:11;;;;;;;2.38;1.55;;;;;;;;;;5008615;28;20704;-73
2022/04/17 06:43:36;;;;;;;2.40;1.50;;;;;;;;;;5008097;28;20041;-72
2022/04/17 06:46:02;;;;;;;2.10;1.27;;;;;;;13.48;nan;101645.88;4991977;28;20068;-72
2022/04/17 06:48:27;;;;;;;2.97;1.50;;;;;;;13.71;nan;101778.44;5009166;28;20603;-74
2022/04/17 06:50:53;;;;;;;2.88;1.58;;;;;;;13.84;nan;101775.47;5007578;28;20034;-72
2022/04/17 06:53:19;;;;;;;2.10;1.30;;;;;;;14.25;nan;101774.25;4989214;28;20049;-73
2022/04/17 06:55:46;;;;;;;2.47;1.27;;;;;;;14.52;nan;101770.78;5006038;28;20033;-73
2022/04/17 06:58:12;;;;;;;2.20;1.10;;;;;;;14.89;nan;101771.75;5006007;28;20034;-73
2022/04/17 07:00:37;;;;;;;2.90;1.50;;;;;;;15.13;nan;101771.16;5006208;28;20041;-73
2022/04/17 07:03:03;;;;;;;3.70;1.40;;;;;;;15.43;nan;101772.63;5006030;28;20037;-73
2022/04/17 07:05:28;;;;;;;2.42;1.27;;;;;;;15.65;nan;101769.47;5009299;28;20049;-73
2022/04/17 07:08:02;;;;;;;2.50;1.40;;;;;;;16.05;nan;101776.13;4992720;28;20049;-72
2022/04/17 07:10:29;;;;;;;2.33;1.40;;;;;;;16.28;nan;101772.91;4992300;28;22148;-73
2022/04/17 07:12:55;;;;;;;2.78;1.20;;;;;;;16.69;nan;101767.78;5011146;28;20346;-73
2022/04/17 07:15:21;;;;;;;2.08;1.08;;;;;;;17.10;nan;101758.06;4992011;28;20574;-72
2022/04/17 07:17:47;;;;;;;2.90;1.35;;;;;;;17.23;nan;101765.59;5007688;28;20030;-73
2022/04/17 07:20:12;;;;;;;2.05;1.23;;;;;;;17.51;nan;101750.06;5009081;28;20122;-73
2022/04/17 07:22:40;;;;;;;2.35;1.23;;;;;;;17.65;nan;101755.75;5010566;28;20090;-73
2022/04/17 07:25:07;;;;;;;2.80;1.10;;;;;;;17.75;nan;101753.72;5011511;28;20739;-73
2022/04/17 07:27:43;;;;;;;2.28;1.20;;;;;;;17.82;nan;101760.94;5008504;28;20056;-73
2022/04/17 07:30:16;;;;;;;2.10;1.10;;;;;;;17.90;nan;101754.75;5009780;28;20037;-73
2022/04/17 07:32:43;;;;;;;2.72;1.50;;;;;;;17.85;nan;101754.41;4993242;28;20038;-73
2022/04/17 07:35:10;;;;;;;3.15;1.50;;;;;;;17.12;nan;101747.22;5010225;28;20446;-73
2022/04/17 07:37:36;;;;;;;2.90;0.85;;;;;;;17.00;nan;101741.34;5009475;28;20467;-73
2022/04/17 07:40:13;;;;;;;2.08;1.20;;;;;;;17.00;nan;101740.53;5010758;28;20129;-73
2022/04/17 07:42:38;;;;;;;1.60;1.20;;;;;;;16.62;nan;101737.38;5009560;28;20034;-74
2022/04/17 07:45:04;;;;;;;2.60;1.45;;;;;;;16.72;nan;101741.56;5008532;28;20099;-74
2022/04/17 07:47:30;;;;;;;2.60;1.17;;;;;;;16.82;nan;101732.63;5010072;28;20104;-73
2022/04/17 07:49:55;;;;;;;2.58;1.25;;;;;;;17.11;nan;101733.03;5009136;28;20657;-73
2022/04/17 07:52:21;;;;;;;3.47;1.20;;;;;;;17.61;nan;101728.50;5008910;28;20041;-74
2022/04/17 07:54:49;;;;;;;2.22;1.20;;;;;;;17.63;nan;101726.50;5010300;28;20034;-74
2022/04/17 07:57:14;;;;;;;2.08;1.25;;;;;;;17.63;nan;101727.31;5008667;28;20045;-73
2022/04/17 07:59:41;;;;;;;2.03;1.10;;;;;;;17.62;nan;101720.31;5008123;28;20061;-74
2022/04/17 08:02:22;;;;;;;2.83;1.33;;;;;;;17.75;nan;101716.28;5007696;28;20037;-74
2022/04/17 08:04:51;;;;;;;2.22;1.35;;;;;;;18.06;nan;101715.56;5008943;28;20080;-74
2022/04/17 08:07:17;;;;;;;3.42;1.33;;;;;;;18.23;nan;101706.47;5007140;28;20033;-73
2022/04/17 08:09:43;;;;;;;2.50;1.30;;;;;;;18.44;nan;101704.03;4990787;28;20113;-73
2022/04/17 08:12:08;;;;;;;1.60;1.10;;;;;;;18.65;nan;101700.75;5009586;28;20124;-74
2022/04/17 08:14:33;;;;;;;2.00;1.17;;;;;;;18.73;nan;101693.66;5008598;28;20034;-75
2022/04/17 08:16:59;;;;;;;1.92;1.00;;;;;;;18.75;nan;101697.84;5013545;28;20121;-73
2022/04/17 08:19:24;;;;;;;2.47;0.90;;;;;;;19.03;nan;101692.00;5009741;28;20118;-74
2022/04/17 08:21:51;;;;;;;1.88;1.10;;;;;;;19.38;nan;101695.91;5009421;28;20033;-74
2022/04/17 08:24:16;;;;;;;3.13;1.30;;;;;;;19.60;nan;101688.81;5009708;28;20044;-74
2022/04/17 08:26:42;;;;;;;2.20;1.20;;;;;;;19.85;nan;101691.28;5011777;28;20037;-74
2022/04/17 08:29:09;;;;;;;2.72;1.00;;;;;;;20.03;nan;101690.91;5009635;28;20030;-74
2022/04/17 08:31:34;;;;;;;2.42;0.90;;;;;;;20.17;nan;101689.25;5008984;28;20039;-74
2022/04/17 08:34:00;;;;;;;1.95;1.00;;;;;;;20.76;nan;101689.13;5009717;28;20049;-74
2022/04/17 08:36:26;;;;;;;1.58;0.90;;;;;;;20.98;nan;101681.91;5007987;28;20045;-74
2022/04/17 08:38:51;;;;;;;2.35;1.08;;;;;;;20.78;nan;101684.38;4989555;28;20033;-75
2022/04/17 08:41:20;;;;;;;2.17;1.20;;;;;;;21.03;nan;101681.34;5009515;28;20041;-75
2022/04/17 08:43:46;;;;;;;1.98;1.00;;;;;;;21.47;nan;101674.91;4992672;28;20065;-75
2022/04/17 08:46:12;;;;;;;1.95;1.00;;;;;;;21.60;nan;101683.91;5007586;28;20045;-74
2022/04/17 08:48:37;;;;;;;1.50;0.90;;;;;;;21.83;nan;101680.09;5006397;28;20507;-74
2022/04/17 08:51:05;;;;;;;2.35;1.02;;;;;;;22.72;nan;101670.34;5009405;28;20041;-74
2022/04/17 08:53:33;;;;;;;2.35;1.00;;;;;;;23.16;nan;101663.56;5008557;28;20034;-74
2022/04/17 08:55:58;;;;;;;2.55;0.90;;;;;;;23.59;nan;101668.53;5009971;28;20072;-74
2022/04/17 08:58:24;;;;;;;1.70;0.93;;;;;;;23.62;nan;101654.59;5010635;28;20462;-74
2022/04/17 09:00:50;;;;;;;1.20;0.90;;;;;;;23.00;nan;101652.16;5008383;28;20052;-74
2022/04/17 09:03:16;;;;;;;3.10;1.13;;;;;;;23.81;nan;101664.56;5008371;28;20033;-75
2022/04/17 09:05:41;;;;;;;4.03;0.90;;;;;;;23.70;nan;101657.06;5001448;28;20036;-74
2022/04/17 09:08:15;;;;;;;1.75;0.90;;;;;;;23.51;nan;101658.78;5009314;28;20406;-75
2022/04/17 09:10:41;;;;;;;1.65;0.98;;;;;;;23.49;nan;101658.97;5010917;28;20034;-75
2022/04/17 09:13:06;;;;;;;1.95;0.93;;;;;;;24.41;nan;101658.06;5011347;28;20053;-74
2022/04/17 09:15:35;;;;;;;1.55;0.80;;;;;;;24.92;nan;101658.00;5011173;28;20045;-74
2022/04/17 09:18:01;;;;;;;2.13;1.00;;;;;;;23.83;nan;101657.06;5011255;28;20038;-74
2022/04/17 09:20:27;;;;;;;1.48;0.73;;;;;;;23.97;nan;101651.63;5010804;28;20462;-74
2022/04/17 09:22:58;;;;;;;1.65;0.90;;;;;;;24.31;nan;101645.03;5007055;28;20100;-74
2022/04/17 09:25:26;;;;;;;2.22;1.00;;;;;;;23.90;nan;101647.06;5005792;28;20403;-73
2022/04/17 09:28:07;;;;;;;1.50;0.80;;;;;;;23.50;nan;101639.06;5008533;28;20048;-73
2022/04/17 09:30:35;;;;;;;2.13;1.00;;;;;;;24.57;nan;101638.66;5007330;28;20038;-74
2022/04/17 09:33:06;;;;;;;2.45;1.13;;;;;;;25.42;nan;101636.34;5005738;28;20117;-75
2022/04/17 09:35:31;;;;;;;;;;;;;;;24.30;nan;101627.97;5011566;28;20069;-74
2022/04/17 09:37:59;;;;;;;1.55;0.95;;;;;;;24.01;nan;101623.16;5011831;28;19917;-74
2022/04/17 09:40:28;;;;;;;1.33;1.00;;;;;;;24.13;nan;101613.31;5007557;28;20061;-74
2022/04/17 09:43:14;;;;;;;2.78;1.00;;;;;;;23.60;nan;101624.28;5007768;28;20625;-74
2022/04/17 09:45:59;;;;;;;3.33;1.20;;;;;;;24.12;nan;101636.81;5005445;28;20041;-73
2022/04/17 09:48:29;;;;;;;1.85;0.90;;;;;;;23.90;nan;101622.75;5003000;28;20034;-73
2022/04/17 09:50:54;;;;;;;2.08;1.10;;;;;;;23.90;nan;101617.34;5007443;28;20403;-73
2022/04/17 09:53:36;;;;;;;1.83;1.02;;;;;;;24.76;nan;101609.81;5007058;28;20084;-74
2022/04/17 09:56:07;;;;;;;3.00;1.15;;;;;;;24.87;nan;101613.72;5006576;28;20052;-74
2022/04/17 09:58:45;;;;;;;1.80;1.00;;;;;;;24.42;nan;101614.59;5007548;28;20038;-73
2022/04/17 10:01:15;;;;;;;2.10;1.05;;;;;;;24.48;nan;101602.13;5004631;28;20036;-74
2022/04/17 10:03:41;;;;;;;1.27;0.90;;;;;;;24.56;nan;101604.56;5006381;28;20394;-74
2022/04/17 10:06:07;;;;;;;2.35;1.10;;;;;;;25.22;nan;101600.53;5006309;28;20042;-73
2022/04/17 10:08:33;;;;;;;1.75;1.08;;;;;;;25.17;nan;101594.91;5005920;28;20038;-73
2022/04/17 10:11:00;;;;;;;2.20;0.95;;;;;;;25.11;nan;101579.56;5007733;28;20034;-74
2022/04/17 10:13:25;;;;;;;1.77;0.90;;;;;;;24.73;nan;101573.22;5007064;28;20045;-74
2022/04/17 10:15:53;;;;;;;1.58;0.80;;;;;;;24.89;nan;101571.84;5008290;28;20037;-73
2022/04/17 10:18:22;;;;;;;1.52;1.00;;;;;;;24.70;nan;101560.16;5007597;28;20038;-74
2022/04/17 10:20:50;;;;;;;2.78;0.90;;;;;;;24.85;nan;101557.09;5008224;28;20038;-74
2022/04/17 10:23:16;;;;;;;1.67;0.90;;;;;;;24.57;nan;101560.25;5007706;28;20119;-75
2022/04/17 10:25:44;;;;;;;1.80;1.10;;;;;;;24.31;nan;101566.63;5006323;28;20751;-74
2022/04/17 10:28:10;;;;;;;2.38;1.00;;;;;;;23.97;nan;101552.47;5003546;28;20030;-73
2022/04/17 10:30:59;;;;;;;1.88;1.00;;;;;;;24.52;nan;101551.97;5004833;28;20034;-73
2022/04/17 10:33:49;;;;;;;1.92;0.95;;;;;;;25.28;nan;101544.66;5005119;28;20030;-74
2022/04/17 10:36:42;;;;;;;3.40;1.10;;;;;;;25.28;nan;101529.22;5002622;28;20127;-74
2022/04/17 10:39:18;;;;;;;2.08;1.00;;;;;;;25.00;nan;101529.69;5004656;28;20034;-73
2022/04/17 10:41:44;;;;;;;2.67;0.80;;;;;;;25.07;nan;101535.88;5009971;28;20049;-73
2022/04/17 10:44:11;;;;;;;2.13;1.05;;;;;;;25.31;nan;101531.47;5010427;28;20042;-74
2022/04/17 10:46:52;;;;;;;2.17;0.93;;;;;;;25.30;nan;101516.31;5011562;28;20088;-73
2022/04/17 10:49:22;;;;;;;1.75;1.05;;;;;;;26.42;nan;101523.16;5013189;28;20048;-72
2022/04/17 10:51:53;;;;;;;2.67;1.00;;;;;;;26.64;nan;101515.31;5009762;28;20029;-72
2022/04/17 10:54:18;;;;;;;2.15;0.90;;;;;;;25.63;nan;101505.06;5009289;28;20037;-72
2022/04/17 10:56:55;;;;;;;1.73;0.90;;;;;;;25.60;nan;101502.81;5009176;28;20042;-72
2022/04/17 10:59:22;;;;;;;2.30;0.80;;;;;;;25.33;nan;101496.06;5009478;28;20048;-72
2022/04/17 11:02:04;;;;;;;2.53;1.02;;;;;;;25.91;nan;101487.44;5010490;28;20299;-72
2022/04/17 11:04:37;;;;;;;1.35;0.85;;;;;;;26.89;nan;101490.66;5009880;28;20041;-72
2022/04/17 11:07:09;;;;;;;2.20;1.00;;;;;;;27.27;nan;101489.34;5008677;28;20045;-72
2022/04/17 11:09:41;;;;;;;2.42;1.00;;;;;;;28.23;nan;101488.72;5008218;28;20034;-72
2022/04/17 11:12:07;;;;;;;1.92;1.02;;;;;;;26.99;nan;101481.94;5010671;28;20030;-73
2022/04/17 11:14:33;;;;;;;3.47;1.00;;;;;;;25.89;nan;101486.84;5009214;28;20103;-72
2022/04/17 11:17:03;;;;;;;1.55;0.90;;;;;;;25.73;nan;101480.16;5011294;28;20041;-72
2022/04/17 11:19:34;;;;;;;2.60;0.90;;;;;;;26.17;nan;101485.38;5010360;28;20041;-74
2022/04/17 11:22:02;;;;;;;1.63;0.90;;;;;;;27.64;nan;101480.84;5010878;28;20327;-74
2022/04/17 11:24:29;;;;;;;1.30;0.70;;;;;;;27.66;nan;101479.53;5010089;28;20131;-74
2022/04/17 11:26:54;;;;;;;1.45;0.75;;;;;;;28.06;nan;101467.78;5010869;28;20057;-74
2022/04/17 11:29:43;;;;;;;2.43;1.00;;;;;;;28.34;nan;101458.72;5004768;28;20084;-74
2022/04/17 11:32:17;;;;;;;2.45;0.90;;;;;;;29.06;nan;101453.50;5003389;28;20038;-74
2022/04/17 11:34:52;;;;;;;1.23;0.77;;;;;;;29.66;nan;101454.50;5009389;28;20518;-74
2022/04/17 11:37:28;;;;;;;1.83;0.90;;;;;;;29.34;nan;101450.63;5010679;28;20061;-74
2022/04/17 11:39:55;;;;;;;2.38;0.93;;;;;;;28.99;nan;101451.78;5012640;28;20038;-74
2022/04/17 11:42:21;;;;;;;2.03;0.88;;;;;;;29.63;nan;101445.75;5012547;28;20034;-74
2022/04/17 11:44:49;;;;;;;2.15;0.90;;;;;;;29.21;nan;101440.09;5009157;28;20121;-74
2022/04/17 11:47:18;;;;;;;1.98;0.82;;;;;;;28.90;nan;101441.59;5011108;28;20037;-74
2022/04/17 11:49:45;;;;;;;3.20;1.00;;;;;;;28.06;nan;101440.59;5008538;28;20092;-74
2022/04/17 11:52:12;;;;;;;1.45;0.80;;;;;;;29.21;nan;101431.94;5011132;28;20129;-74
2022/04/17 11:54:39;;;;;;;1.50;0.90;;;;;;;29.75;nan;101433.91;5008814;28;20092;-73
2022/04/17 11:57:05;;;;;;;2.08;0.93;;;;;;;27.46;nan;101427.50;5008299;28;21089;-74
2022/04/17 12:00:05;;;;;;;3.15;1.77;;;;;;;27.26;nan;101417.06;5011865;28;20313;-74
2022/04/17 12:02:30;;;;;;;2.00;1.02;;;;;;;26.89;nan;101411.97;4948315;28;20117;-75
2022/04/17 12:05:07;;;;;;;1.55;1.02;;;;;;;25.20;nan;101415.84;5013859;28;20112;-74